Time;durP1;ratioP1;P1;durP2;ratioP2;P2;SDS_P1;SDS_P2;PMS_P1;PMS_P2;Temp;Humidity;BMP_temperature;BMP_pressure;BME280_temperature;BME280_humidity;BME280_pressure;Samples;Min_cycle;Max_cycle;Signal;HPM_P1;HPM_P2
2022/08/31 00:08:19;;;;;;;4.60;3.20;;;;;;;17.44;100.00;100928.60;655783;1277;1523069;-89
2022/08/31 00:23:22;;;;;;;78.30;52.10;;;;;;;17.22;100.00;100929.64;657474;1277;140264;-91
2022/08/31 00:38:26;;;;;;;4.40;2.80;;;;;;;17.06;100.00;100927.27;656900;1277;139706;-91
2022/08/31 00:53:29;;;;;;;5.90;2.60;;;;;;;16.73;100.00;100935.43;655973;1277;139152;-90
2022/08/31 01:08:33;;;;;;;5.20;2.60;;;;;;;16.47;100.00;100938.27;656798;1276;139340;-91
2022/08/31 01:23:43;;;;;;;5.10;2.10;;;;;;;16.28;100.00;100939.64;657002;1276;139751;-91
2022/08/31 01:38:47;;;;;;;5.30;2.10;;;;;;;16.11;100.00;100945.13;656715;1277;139173;-92
2022/08/31 01:53:55;;;;;;;;;;;;;;;15.88;100.00;100941.90;655666;1278;139437;-91
2022/08/31 02:09:04;;;;;;;2.90;2.20;;;;;;;15.71;100.00;100937.61;657037;1277;127367;-90
2022/08/31 02:24:11;;;;;;;8.10;3.10;;;;;;;15.53;100.00;100948.37;656038;1276;140436;-91
2022/08/31 02:39:15;;;;;;;5.40;2.30;;;;;;;15.25;100.00;100951.96;655853;1277;138992;-91
2022/08/31 02:54:19;;;;;;;3.50;1.90;;;;;;;15.12;100.00;100947.77;655405;1278;139103;-92
2022/08/31 03:09:23;;;;;;;5.40;1.90;;;;;;;15.12;100.00;100944.23;656343;1277;141523;-92
2022/08/31 03:24:27;;;;;;;4.50;2.10;;;;;;;15.10;100.00;100948.11;655743;1277;140496;-91
2022/08/31 03:39:31;;;;;;;3.20;2.00;;;;;;;15.20;100.00;100952.41;655224;1277;139104;-92
2022/08/31 03:54:36;;;;;;;4.60;2.10;;;;;;;15.35;100.00;100957.13;655402;1278;138954;-90
2022/08/31 04:09:40;;;;;;;8.50;2.70;;;;;;;15.20;100.00;100955.63;656711;1277;139667;-91
2022/08/31 04:25:09;;;;;;;5.60;2.10;;;;;;;14.99;100.00;100951.85;656061;1279;24329;-90
2022/08/31 04:40:21;;;;;;;3.60;1.90;;;;;;;15.07;100.00;100963.02;657926;1278;24268;-85
2022/08/31 04:55:29;;;;;;;3.10;2.00;;;;;;;15.17;100.00;100967.33;657982;1279;26620;-92
2022/08/31 05:10:34;;;;;;;7.30;3.20;;;;;;;15.46;100.00;100978.33;657895;1277;24272;-90
2022/08/31 05:25:39;;;;;;;4.50;2.50;;;;;;;15.81;100.00;100986.67;657819;1277;22651;-89
2022/08/31 05:40:50;;;;;;;6.90;3.30;;;;;;;16.14;100.00;100999.88;657349;1277;24417;-90
2022/08/31 05:55:59;;;;;;;4.30;2.40;;;;;;;16.44;100.00;101006.85;657108;1277;23518;-92
2022/08/31 06:11:05;;;;;;;6.30;2.10;;;;;;;16.87;100.00;101019.11;657334;1277;24515;-89
2022/08/31 06:26:14;;;;;;;4.50;2.20;;;;;;;17.21;100.00;101040.88;657467;1277;22546;-91
2022/08/31 06:41:23;;;;;;;5.20;2.40;;;;;;;17.38;100.00;101055.41;657550;1278;22634;-93
2022/08/31 06:56:46;;;;;;;4.10;2.20;;;;;;;17.91;100.00;101062.80;657506;1277;30643;-89
2022/08/31 07:11:51;;;;;;;6.20;2.50;;;;;;;18.32;100.00;101059.98;656683;1277;25280;-92
2022/08/31 07:27:03;;;;;;;5.40;2.10;;;;;;;19.86;100.00;101059.64;658105;1277;22498;-92
2022/08/31 07:42:43;;;;;;;5.10;1.80;;;;;;;21.61;100.00;101062.95;657616;1277;23124;-89
2022/08/31 07:57:49;;;;;;;6.80;1.50;;;;;;;22.53;100.00;101069.70;659585;1277;22568;-93
2022/08/31 08:12:59;;;;;;;4.40;1.30;;;;;;;23.51;98.15;101070.02;657015;1277;24379;-92
2022/08/31 08:28:36;;;;;;;10.20;2.00;;;;;;;24.26;91.22;101067.23;657721;1277;31938;-92
2022/08/31 08:43:49;;;;;;;30.80;4.50;;;;;;;25.25;86.02;101071.41;659159;1277;24387;-89
2022/08/31 08:58:57;;;;;;;1.70;0.90;;;;;;;25.21;77.16;101065.54;657082;1277;24391;-92
2022/08/31 09:14:46;;;;;;;6.20;3.80;;;;;;;26.56;74.54;101061.92;657840;1277;24111;-93
2022/08/31 09:29:57;;;;;;;13.20;5.20;;;;;;;25.66;67.22;101064.33;659733;1277;34193;-92
2022/08/31 09:45:11;;;;;;;3.80;0.90;;;;;;;23.77;66.46;101060.20;661163;1277;138401;-92
2022/08/31 10:00:38;;;;;;;1.00;0.60;;;;;;;23.30;67.83;101062.05;660427;1277;138850;-92
2022/08/31 10:15:57;;;;;;;1.10;0.70;;;;;;;23.18;70.72;101077.77;659287;1277;138750;-94
2022/08/31 10:31:06;;;;;;;4.30;1.40;;;;;;;22.20;75.20;101096.30;659844;1277;138340;-90
2022/08/31 10:46:09;;;;;;;3.00;0.70;;;;;;;20.99;82.78;101097.90;659157;1277;139528;-90
2022/08/31 11:01:25;;;;;;;6.30;1.70;;;;;;;20.57;86.88;101090.89;659502;1277;139403;-88
2022/08/31 11:16:49;;;;;;;3.50;1.50;;;;;;;21.04;86.88;101088.79;658914;1277;22579;-91
2022/08/31 11:32:04;;;;;;;1.70;0.90;;;;;;;21.91;85.75;101080.84;662595;1277;22545;-93
2022/08/31 11:47:27;;;;;;;25.90;3.40;;;;;;;22.78;80.79;101074.59;657436;1279;23503;-92
2022/08/31 12:02:34;;;;;;;10.90;1.70;;;;;;;23.14;78.53;101071.00;655804;1277;1529066;-91
2022/08/31 12:18:09;;;;;;;3.50;1.00;;;;;;;23.67;76.56;101059.64;656754;1277;24327;-94
2022/08/31 12:33:17;;;;;;;5.30;1.20;;;;;;;24.40;71.60;101047.73;656839;1277;23593;-90
2022/08/31 12:48:52;;;;;;;4.30;1.10;;;;;;;23.47;73.69;101058.44;657429;1277;22543;-89
2022/08/31 13:04:01;;;;;;;3.00;1.30;;;;;;;23.58;74.83;101044.16;656571;1277;24464;-89
2022/08/31 13:19:29;;;;;;;1.60;1.00;;;;;;;25.10;70.77;101034.56;655966;1277;25309;-89
2022/08/31 13:34:49;;;;;;;1.40;0.80;;;;;;;25.92;67.90;101027.95;656104;1277;31483;-88
2022/08/31 13:50:07;;;;;;;3.30;1.10;;;;;;;24.52;64.83;101018.26;656974;1277;25409;-90
2022/08/31 14:05:28;;;;;;;7.30;3.10;;;;;;;23.99;67.08;101000.27;656919;1277;22528;-88
2022/08/31 14:20:40;;;;;;;2.00;1.10;;;;;;;23.36;68.19;100992.89;656614;1277;22547;-89
2022/08/31 14:36:12;;;;;;;3.10;0.90;;;;;;;23.70;68.31;100988.13;655927;1277;31435;-89
2022/08/31 14:51:17;;;;;;;1.50;0.90;;;;;;;23.87;65.83;100987.48;655815;1277;23485;-90
2022/08/31 15:06:21;;;;;;;2.50;1.40;;;;;;;28.18;62.43;100988.98;655813;1278;23478;-88
2022/08/31 15:21:26;;;;;;;1.80;0.70;;;;;;;29.77;55.89;100978.12;655430;1279;22566;-84
2022/08/31 15:36:30;;;;;;;6.00;1.20;;;;;;;32.87;52.52;100970.86;657313;1277;22708;-90
2022/08/31 15:51:45;;;;;;;4.20;2.30;;;;;;;29.84;51.55;100970.70;656658;1277;23474;-89
2022/08/31 16:06:51;;;;;;;2.70;1.70;;;;;;;27.90;53.83;100964.41;657027;1278;25271;-84
2022/08/31 16:21:57;;;;;;;11.60;6.30;;;;;;;25.61;55.85;100956.50;656711;1277;25427;-89
2022/08/31 16:37:09;;;;;;;6.10;2.50;;;;;;;24.48;59.25;100944.75;657048;1277;23529;-92
2022/08/31 16:52:25;;;;;;;3.60;1.70;;;;;;;23.86;61.39;100941.73;658021;1277;24225;-94
2022/08/31 17:07:29;;;;;;;2.50;1.20;;;;;;;23.21;63.10;100946.52;659773;1277;24256;-92
2022/08/31 17:22:34;;;;;;;3.90;2.10;;;;;;;22.45;65.09;100954.02;657913;1277;22903;-94
2022/08/31 17:37:40;;;;;;;2.20;1.30;;;;;;;21.37;67.13;100968.02;659419;1277;24388;-96
2022/08/31 17:52:46;;;;;;;3.70;1.60;;;;;;;20.49;69.26;100975.52;661377;1277;23650;-96
2022/08/31 18:07:49;;;;;;;5.80;2.20;;;;;;;19.81;71.08;100986.08;661036;1277;25744;-95
2022/08/31 18:22:54;;;;;;;42.50;18.70;;;;;;;19.27;73.07;100995.61;660524;1277;24271;-95
2022/08/31 18:37:58;;;;;;;196.40;75.40;;;;;;;18.84;75.23;101002.77;660765;1275;25439;-95
2022/08/31 18:53:04;;;;;;;74.50;33.40;;;;;;;18.46;77.37;101005.35;661751;1277;25643;-94
2022/08/31 19:08:18;;;;;;;55.10;24.90;;;;;;;18.14;79.21;101012.58;660626;1278;22697;-94
2022/08/31 19:23:22;;;;;;;45.80;21.50;;;;;;;17.74;81.56;101014.36;661762;1277;25276;-95
2022/08/31 19:38:27;;;;;;;26.80;16.20;;;;;;;17.39;83.05;101016.08;659743;1278;23451;-95
2022/08/31 19:53:32;;;;;;;21.30;11.30;;;;;;;17.04;84.48;101017.62;660512;1279;22555;-94
2022/08/31 20:08:38;;;;;;;10.20;6.40;;;;;;;16.80;85.25;101019.02;659781;1279;26027;-95
2022/08/31 20:23:51;;;;;;;28.80;12.60;;;;;;;16.56;85.58;101024.58;663785;1278;22557;-96
2022/08/31 20:39:16;;;;;;;30.50;11.50;;;;;;;16.33;86.88;101028.64;664951;1279;22811;-94
2022/08/31 20:54:22;;;;;;;11.70;5.10;;;;;;;16.08;88.41;101036.67;666377;1278;22571;-94
2022/08/31 21:09:26;;;;;;;7.00;2.80;;;;;;;15.76;88.79;101031.27;665060;1278;22702;-94
2022/08/31 21:24:32;;;;;;;6.00;2.40;;;;;;;15.29;90.37;101031.70;665336;1277;24788;-94
2022/08/31 21:39:37;;;;;;;5.20;1.70;;;;;;;15.03;91.53;101036.50;664307;1277;25519;-94
2022/08/31 21:54:43;;;;;;;4.30;2.00;;;;;;;14.97;92.73;101028.41;663744;1277;24352;-94
2022/08/31 22:09:47;;;;;;;3.00;1.70;;;;;;;14.86;94.06;101030.19;660669;1277;23554;-94
